createdAt,value
2019-05-16T00:01:19.416Z,78.40
2019-05-16T00:03:48.959Z,79.20
2019-05-16T00:06:18.200Z,77.30
2019-05-16T00:08:48.070Z,83.40
2019-05-16T00:11:17.990Z,84.50
2019-05-16T00:13:48.919Z,84.00
2019-05-16T00:16:18.736Z,84.60
2019-05-16T00:18:48.061Z,82.20
2019-05-16T00:21:17.914Z,80.60
2019-05-16T00:23:48.636Z,79.90
2019-05-16T00:26:19.483Z,78.50
2019-05-16T00:28:48.474Z,78.60
2019-05-16T00:31:18.293Z,78.90
2019-05-16T00:33:48.734Z,78.70
2019-05-16T00:36:18.987Z,79.60
2019-05-16T00:38:48.454Z,79.50
2019-05-16T00:41:18.010Z,76.40
2019-05-16T00:43:48.507Z,77.10
2019-05-16T00:46:19.815Z,78.50
2019-05-16T00:48:48.736Z,81.20
2019-05-16T00:51:18.271Z,81.70
2019-05-16T00:53:48.380Z,83.40
2019-05-16T00:56:18.612Z,84.00
2019-05-16T00:58:48.395Z,82.20
2019-05-16T01:01:18.939Z,80.70
2019-05-16T01:03:48.345Z,87.40
2019-05-16T01:06:22.555Z,88.20
2019-05-16T01:08:48.769Z,86.70
2019-05-16T01:11:18.587Z,86.10
2019-05-16T01:13:48.759Z,85.70
2019-05-16T01:16:18.684Z,88.30
2019-05-16T01:18:48.698Z,87.30
2019-05-16T01:21:18.653Z,87.50
2019-05-16T01:23:48.318Z,85.80
2019-05-16T01:26:18.628Z,84.60
2019-05-16T01:28:48.345Z,82.20
2019-05-16T01:31:19.075Z,77.90
2019-05-16T01:33:47.896Z,79.50
2019-05-16T01:36:26.245Z,79.80
2019-05-16T01:38:48.061Z,80.00
2019-05-16T01:41:18.047Z,83.60
2019-05-16T01:43:48.325Z,82.80
2019-05-16T01:46:18.037Z,80.50
2019-05-16T01:48:48.547Z,79.20
2019-05-16T01:51:18.451Z,80.10
2019-05-16T01:53:48.793Z,83.00
2019-05-16T01:56:18.030Z,87.30
2019-05-16T01:58:48.909Z,87.60
2019-05-16T02:01:18.986Z,87.20
2019-05-16T02:03:48.190Z,86.60
2019-05-16T02:06:18.381Z,87.40
2019-05-16T02:08:48.735Z,87.60
2019-05-16T02:11:18.197Z,87.20
2019-05-16T02:13:48.422Z,85.20
2019-05-16T02:16:18.703Z,84.00
2019-05-16T02:18:48.902Z,81.40
2019-05-16T02:21:18.186Z,82.30
2019-05-16T02:23:51.319Z,81.50
2019-05-16T02:26:19.133Z,80.80
2019-05-16T02:28:50.539Z,85.10
2019-05-16T02:31:22.421Z,85.40
2019-05-16T02:33:51.030Z,85.60
2019-05-16T02:36:21.729Z,85.10
2019-05-16T02:38:54.923Z,84.20
2019-05-16T02:41:21.559Z,83.80
2019-05-16T02:43:50.857Z,84.90
2019-05-16T02:46:21.766Z,85.50
2019-05-16T02:48:51.819Z,85.30
2019-05-16T02:51:21.207Z,84.20
2019-05-16T02:53:51.218Z,83.60
2019-05-16T02:56:21.242Z,82.70
2019-05-16T02:58:52.082Z,82.00
2019-05-16T03:01:21.644Z,81.20
2019-05-16T03:03:51.599Z,81.30
2019-05-16T03:06:21.342Z,82.10
2019-05-16T03:08:50.732Z,82.30
2019-05-16T03:11:21.151Z,84.00
2019-05-16T03:13:51.287Z,83.70
2019-05-16T03:16:22.249Z,83.90
2019-05-16T03:18:51.639Z,82.40
2019-05-16T03:21:21.642Z,81.40
2019-05-16T03:23:50.867Z,80.60
2019-05-16T03:26:20.961Z,80.40
2019-05-16T03:28:52.143Z,80.70
2019-05-16T03:31:24.525Z,82.70
2019-05-16T03:33:58.831Z,82.40
2019-05-16T03:36:25.102Z,83.90
2019-05-16T03:38:51.651Z,82.70
2019-05-16T03:41:21.535Z,81.00
2019-05-16T03:43:50.920Z,80.70
2019-05-16T03:46:21.494Z,79.90
2019-05-16T03:48:52.025Z,79.70
2019-05-16T03:51:21.534Z,83.60
2019-05-16T03:53:50.818Z,86.10
2019-05-16T03:56:21.787Z,86.40
2019-05-16T03:58:50.959Z,86.80
2019-05-16T04:01:20.985Z,87.70
2019-05-16T04:03:51.103Z,89.40
2019-05-16T04:06:22.201Z,88.50
2019-05-16T04:08:51.231Z,90.20
2019-05-16T04:11:23.448Z,87.20
2019-05-16T04:13:50.862Z,84.40
2019-05-16T04:16:20.899Z,83.30
2019-05-16T04:18:51.466Z,81.90
2019-05-16T04:21:21.958Z,81.00
2019-05-16T04:23:50.844Z,80.20
2019-05-16T04:26:21.693Z,79.30
2019-05-16T04:28:51.375Z,84.80
2019-05-16T04:31:22.138Z,90.20
2019-05-16T04:33:51.707Z,90.40
2019-05-16T04:36:21.326Z,91.10
2019-05-16T04:38:51.225Z,91.00
2019-05-16T04:41:21.141Z,90.50
2019-05-16T04:43:50.751Z,90.60
2019-05-16T04:46:21.340Z,91.10
2019-05-16T04:48:50.829Z,91.00
2019-05-16T04:51:21.915Z,91.30
2019-05-16T04:53:50.953Z,91.00
2019-05-16T04:56:21.763Z,90.60
2019-05-16T04:58:51.354Z,91.20
2019-05-16T05:01:21.558Z,91.60
2019-05-16T05:04:04.890Z,91.20
2019-05-16T05:06:20.983Z,88.50
2019-05-16T05:08:57.861Z,88.00
2019-05-16T05:11:21.488Z,84.40
2019-05-16T05:13:50.745Z,84.20
2019-05-16T05:16:20.380Z,82.80
2019-05-16T05:18:51.427Z,82.50
2019-05-16T05:21:20.943Z,79.00
2019-05-16T05:23:50.804Z,86.50
2019-05-16T05:26:20.073Z,88.20
2019-05-16T05:28:50.789Z,89.50
2019-05-16T05:31:25.011Z,89.10
2019-05-16T05:33:50.714Z,89.10
2019-05-16T05:36:20.986Z,87.40
2019-05-16T05:39:06.274Z,87.90
2019-05-16T05:41:20.369Z,88.10
2019-05-16T05:43:50.330Z,85.10
2019-05-16T05:46:20.489Z,85.10
2019-05-16T05:48:50.495Z,86.40
2019-05-16T05:51:20.743Z,86.60
2019-05-16T05:53:50.950Z,86.30
2019-05-16T05:56:19.862Z,87.10
2019-05-16T05:58:50.986Z,85.60
2019-05-16T06:01:20.597Z,85.30
2019-05-16T06:03:50.540Z,83.70
2019-05-16T06:06:21.119Z,84.00
2019-05-16T06:08:51.125Z,84.20
2019-05-16T06:11:20.537Z,85.20
2019-05-16T06:13:49.984Z,86.70
2019-05-16T06:16:20.471Z,86.10
2019-05-16T06:18:50.227Z,84.60
2019-05-16T06:21:20.267Z,83.90
2019-05-16T06:23:50.915Z,83.10
2019-05-16T06:26:20.399Z,84.20
2019-05-16T06:28:50.517Z,80.50
2019-05-16T06:31:22.063Z,79.90
2019-05-16T06:33:50.225Z,78.80
2019-05-16T06:36:20.388Z,77.50
2019-05-16T06:38:49.770Z,79.10
2019-05-16T06:41:19.917Z,76.70
2019-05-16T06:43:50.662Z,75.90
2019-05-16T06:46:20.121Z,74.50
2019-05-16T06:48:50.561Z,75.40
2019-05-16T06:51:20.014Z,74.50
2019-05-16T06:53:50.094Z,74.40
2019-05-16T06:56:20.057Z,73.90
2019-05-16T06:58:51.741Z,75.40
2019-05-16T07:01:20.850Z,76.00
2019-05-16T07:03:50.781Z,77.60
2019-05-16T07:06:46.040Z,75.00
2019-05-16T07:08:50.779Z,74.90
2019-05-16T07:11:20.251Z,75.50
2019-05-16T07:13:51.693Z,73.40
2019-05-16T07:16:20.616Z,74.80
2019-05-16T07:18:50.619Z,74.40
2019-05-16T07:21:20.189Z,74.60
2019-05-16T07:23:51.188Z,76.40
2019-05-16T07:26:20.567Z,75.00
2019-05-16T07:28:51.573Z,73.40
2019-05-16T07:31:22.299Z,74.00
2019-05-16T07:33:50.407Z,74.30
2019-05-16T07:36:20.851Z,71.10
2019-05-16T07:38:50.725Z,69.80
2019-05-16T07:41:20.477Z,70.70
2019-05-16T07:43:50.545Z,68.00
2019-05-16T07:46:20.587Z,69.90
2019-05-16T07:48:51.940Z,68.30
2019-05-16T07:51:20.551Z,67.80
2019-05-16T07:53:50.506Z,66.50
2019-05-16T07:56:20.446Z,65.60
2019-05-16T07:58:50.813Z,60.20
2019-05-16T08:01:20.096Z,60.50
2019-05-16T08:03:51.017Z,60.40
2019-05-16T08:06:20.119Z,62.40
2019-05-16T08:08:51.070Z,61.20
2019-05-16T08:11:20.530Z,57.40
2019-05-16T08:13:50.781Z,57.70
2019-05-16T08:16:20.814Z,57.00
2019-05-16T08:18:50.673Z,57.80
2019-05-16T08:21:20.249Z,59.00
2019-05-16T08:23:50.440Z,58.30
2019-05-16T08:26:21.834Z,59.70
2019-05-16T08:28:50.228Z,58.60
2019-05-16T08:31:21.492Z,58.80
2019-05-16T08:38:51.477Z,56.90
2019-05-16T08:43:53.290Z,56.40
2019-05-16T08:46:21.394Z,55.10
2019-05-16T08:48:54.055Z,55.70
2019-05-16T08:51:22.218Z,54.40
2019-05-16T08:53:50.726Z,53.60
2019-05-16T08:56:22.036Z,54.80
2019-05-16T08:58:53.734Z,51.60
2019-05-16T09:01:21.769Z,51.40
2019-05-16T09:03:52.147Z,48.90
2019-05-16T09:06:22.796Z,47.80
2019-05-16T09:08:51.392Z,45.00
2019-05-16T09:10:20.962Z,57.80
2019-05-16T09:10:40.777Z,56.80
2019-05-16T09:11:40.554Z,46.00
2019-05-16T09:13:50.413Z,46.10
2019-05-16T09:16:19.114Z,47.10
2019-05-16T09:18:38.423Z,57.00
2019-05-16T09:18:50.515Z,45.30
2019-05-16T09:21:18.413Z,46.50
2019-05-16T09:23:47.148Z,46.60
2019-05-16T09:26:18.958Z,48.10
2019-05-16T09:28:48.173Z,47.80
2019-05-16T09:31:17.914Z,45.60
2019-05-16T09:33:47.501Z,45.80
2019-05-16T09:36:17.461Z,46.00
2019-05-16T09:38:53.509Z,44.40
2019-05-16T09:41:16.975Z,45.10
2019-05-16T09:43:48.638Z,44.10
2019-05-16T09:46:17.213Z,45.60
2019-05-16T09:48:47.877Z,45.00
2019-05-16T09:51:17.275Z,44.10
2019-05-16T09:53:47.124Z,48.50
2019-05-16T09:56:16.814Z,48.90
2019-05-16T09:58:46.685Z,47.40
2019-05-16T10:01:17.423Z,47.90
2019-05-16T10:03:47.700Z,48.70
2019-05-16T10:06:19.004Z,48.00
2019-05-16T10:08:46.689Z,47.70
2019-05-16T10:11:18.120Z,47.20
2019-05-16T10:13:47.105Z,44.80
2019-05-16T10:16:16.754Z,46.80
2019-05-16T10:18:47.541Z,46.00
2019-05-16T10:21:19.901Z,48.00
2019-05-16T10:23:47.000Z,48.20
2019-05-16T10:26:17.268Z,51.30
2019-05-16T10:28:46.798Z,49.50
2019-05-16T10:31:17.787Z,48.80
2019-05-16T10:33:47.664Z,48.20
2019-05-16T10:36:17.144Z,51.30
2019-05-16T10:38:48.461Z,50.70
2019-05-16T10:41:17.041Z,49.90
2019-05-16T10:43:47.437Z,51.60
2019-05-16T10:46:17.665Z,52.50
2019-05-16T10:48:46.915Z,49.40
2019-05-16T10:51:16.963Z,51.50
2019-05-16T10:54:02.408Z,48.00
2019-05-16T10:56:16.160Z,51.10
2019-05-16T10:59:10.584Z,50.30
2019-05-16T11:01:27.142Z,50.80
2019-05-16T11:03:48.857Z,49.80
2019-05-16T11:06:25.387Z,49.10
2019-05-16T11:08:46.665Z,49.00
2019-05-16T11:11:19.681Z,48.30
2019-05-16T11:13:47.236Z,49.30
2019-05-16T11:16:17.442Z,47.50
2019-05-16T11:18:46.257Z,49.10
2019-05-16T11:21:18.973Z,50.70
2019-05-16T11:23:47.093Z,49.70
2019-05-16T11:26:15.662Z,49.00
2019-05-16T11:28:47.937Z,48.00
2019-05-16T11:31:14.767Z,47.40
2019-05-16T11:33:43.553Z,48.20
2019-05-16T11:36:13.034Z,47.90
2019-05-16T11:38:41.905Z,47.70
2019-05-16T11:41:10.620Z,47.90
2019-05-16T11:43:39.291Z,47.80
2019-05-16T11:46:07.986Z,51.10
2019-05-16T11:48:37.658Z,48.60
2019-05-16T11:51:07.331Z,49.20
2019-05-16T11:53:37.805Z,48.50
2019-05-16T11:56:08.313Z,47.00
2019-05-16T11:58:37.103Z,51.40
2019-05-16T12:01:07.509Z,51.00
2019-05-16T12:03:37.391Z,50.80
2019-05-16T12:06:10.839Z,51.10
2019-05-16T12:08:37.096Z,50.60
2019-05-16T12:11:06.893Z,51.60
2019-05-16T12:13:36.938Z,52.80
2019-05-16T12:16:07.675Z,51.90
2019-05-16T12:18:37.351Z,52.80
2019-05-16T12:21:07.566Z,55.20
2019-05-16T12:23:37.265Z,54.80
2019-05-16T12:26:07.710Z,54.80
2019-05-16T12:28:36.772Z,56.00
2019-05-16T12:31:07.234Z,54.00
2019-05-16T12:33:37.350Z,55.50
2019-05-16T12:36:07.351Z,56.90
2019-05-16T12:38:38.044Z,55.80
2019-05-16T12:41:07.241Z,57.40
2019-05-16T12:43:46.065Z,57.40
2019-05-16T12:46:07.533Z,57.40
2019-05-16T12:48:37.290Z,57.30
2019-05-16T12:51:08.440Z,56.70
2019-05-16T12:53:36.829Z,57.10
2019-05-16T12:56:05.514Z,57.10
2019-05-16T12:58:40.984Z,58.90
2019-05-16T13:01:07.465Z,57.70
2019-05-16T13:03:37.585Z,58.00
2019-05-16T13:06:05.142Z,56.50
2019-05-16T13:08:33.867Z,57.70
2019-05-16T13:11:02.528Z,57.20
2019-05-16T13:13:31.260Z,57.50
2019-05-16T13:15:59.930Z,57.20
2019-05-16T13:18:28.621Z,56.40
2019-05-16T13:20:57.531Z,58.40
2019-05-16T13:23:26.963Z,57.70
2019-05-16T13:25:57.638Z,57.00
2019-05-16T13:28:26.146Z,56.20
2019-05-16T13:30:57.509Z,57.00
2019-05-16T13:33:27.169Z,57.40
2019-05-16T13:35:57.619Z,58.70
2019-05-16T13:38:27.975Z,58.30
2019-05-16T13:40:57.116Z,58.80
2019-05-16T13:43:26.961Z,59.10
2019-05-16T13:45:57.616Z,59.20
2019-05-16T13:48:26.756Z,59.70
2019-05-16T13:51:08.370Z,59.00
2019-05-16T13:53:27.092Z,59.30
2019-05-16T13:55:56.108Z,59.10
2019-05-16T13:58:24.754Z,59.50
2019-05-16T14:00:53.470Z,59.10
2019-05-16T14:03:22.136Z,60.90
2019-05-16T14:05:50.836Z,59.90
2019-05-16T14:08:19.508Z,60.80
2019-05-16T14:10:49.183Z,60.00
2019-05-16T14:13:18.067Z,59.50
2019-05-16T14:15:47.354Z,60.50
2019-05-16T14:18:17.664Z,61.80
2019-05-16T14:20:46.686Z,61.80
2019-05-16T14:23:17.649Z,62.20
2019-05-16T14:25:48.224Z,62.50
2019-05-16T14:28:17.220Z,62.80
2019-05-16T14:30:46.875Z,63.30
2019-05-16T14:33:17.188Z,63.00
2019-05-16T14:35:47.228Z,64.10
2019-05-16T14:38:17.641Z,65.10
2019-05-16T14:40:50.000Z,63.30
2019-05-16T14:43:17.273Z,63.20
2019-05-16T14:45:46.647Z,63.80
2019-05-16T14:48:18.184Z,64.90
2019-05-16T14:50:47.028Z,65.70
2019-05-16T14:53:17.919Z,65.80
2019-05-16T14:55:47.550Z,66.00
2019-05-16T14:58:16.406Z,67.10
2019-05-16T15:00:48.784Z,68.80
2019-05-16T15:03:17.916Z,68.70
2019-05-16T15:05:48.044Z,68.50
2019-05-16T15:08:18.212Z,68.30
2019-05-16T15:10:46.867Z,68.90
2019-05-16T15:13:17.488Z,69.50
2019-05-16T15:15:46.549Z,70.30
2019-05-16T15:18:17.795Z,70.80
2019-05-16T15:20:46.965Z,70.60
2019-05-16T15:23:17.548Z,70.70
2019-05-16T15:25:46.156Z,71.80
2019-05-16T15:28:17.055Z,71.50
2019-05-16T15:30:46.860Z,71.20
2019-05-16T15:33:16.882Z,71.70
2019-05-16T15:35:47.067Z,71.50
2019-05-16T15:38:16.700Z,71.80
2019-05-16T15:40:47.881Z,72.10
2019-05-16T15:43:18.186Z,71.60
2019-05-16T15:45:49.871Z,71.20
2019-05-16T15:48:17.249Z,72.70
2019-05-16T15:50:46.163Z,73.80
2019-05-16T15:53:14.848Z,74.10
2019-05-16T15:55:43.697Z,73.60
2019-05-16T15:58:12.408Z,72.60
2019-05-16T16:00:48.765Z,72.30
2019-05-16T16:03:17.834Z,72.20
2019-05-16T16:05:46.633Z,72.50
2019-05-16T16:08:17.835Z,72.80
2019-05-16T16:10:47.819Z,73.80
2019-05-16T16:13:19.862Z,73.70
2019-05-16T16:15:53.309Z,74.20
2019-05-16T16:18:19.469Z,74.60
2019-05-16T16:20:47.787Z,74.40
2019-05-16T16:23:17.837Z,74.30
2019-05-16T16:25:50.448Z,74.40
2019-05-16T16:28:17.692Z,75.10
2019-05-16T16:30:47.934Z,74.70
2019-05-16T16:33:25.499Z,75.10
2019-05-16T16:35:47.856Z,75.50
2019-05-16T16:38:17.066Z,75.10
2019-05-16T16:40:47.810Z,75.20
2019-05-16T16:43:16.618Z,75.50
2019-05-16T16:45:47.692Z,75.60
2019-05-16T16:48:17.078Z,76.00
2019-05-16T16:50:45.971Z,76.00
2019-05-16T16:53:14.677Z,75.40
2019-05-16T16:55:43.347Z,75.50
2019-05-16T16:58:12.095Z,75.50
2019-05-16T17:00:40.753Z,76.40
2019-05-16T17:03:11.096Z,76.70
2019-05-16T17:05:39.941Z,76.20
2019-05-16T17:08:08.773Z,76.00
2019-05-16T17:10:38.258Z,75.90
2019-05-16T17:13:07.071Z,77.00
2019-05-16T17:15:36.813Z,76.70
2019-05-16T17:18:06.943Z,77.00
2019-05-16T17:20:37.200Z,78.10
2019-05-16T17:23:06.947Z,77.30
2019-05-16T17:25:36.654Z,77.10
2019-05-16T17:28:07.011Z,77.90
2019-05-16T17:30:36.866Z,79.20
2019-05-16T17:33:07.775Z,79.30
2019-05-16T17:35:38.509Z,79.20
2019-05-16T17:38:06.900Z,79.60
2019-05-16T17:40:37.908Z,79.80
2019-05-16T17:43:07.442Z,80.00
2019-05-16T17:45:37.623Z,79.90
2019-05-16T17:48:06.825Z,80.20
2019-05-16T17:50:37.376Z,80.40
2019-05-16T17:53:07.087Z,81.10
2019-05-16T17:55:36.926Z,80.40
2019-05-16T17:58:08.790Z,80.40
2019-05-16T18:00:41.193Z,80.50
2019-05-16T18:03:09.558Z,81.10
2019-05-16T18:05:39.697Z,81.20
2019-05-16T18:08:12.315Z,81.30
2019-05-16T18:10:42.915Z,81.20
2019-05-16T18:13:11.686Z,81.00
2019-05-16T18:15:42.121Z,81.10
2019-05-16T18:18:12.858Z,81.40
2019-05-16T18:20:54.751Z,81.80
2019-05-16T18:23:16.314Z,81.60
2019-05-16T18:25:46.885Z,82.10
2019-05-16T18:28:17.349Z,82.10
2019-05-16T18:30:47.258Z,83.10
2019-05-16T18:33:16.663Z,83.00
2019-05-16T18:35:46.586Z,82.90
2019-05-16T18:38:15.407Z,82.90
2019-05-16T18:40:47.141Z,83.00
2019-05-16T18:43:16.476Z,83.20
2019-05-16T18:45:46.783Z,82.50
2019-05-16T18:48:14.936Z,82.60
2019-05-16T18:50:43.711Z,83.20
2019-05-16T18:53:12.384Z,83.40
2019-05-16T18:55:41.041Z,83.30
2019-05-16T18:58:09.710Z,83.10
2019-05-16T19:00:38.421Z,83.30
2019-05-16T19:03:08.019Z,83.00
2019-05-16T19:05:37.328Z,83.20
2019-05-16T19:08:07.442Z,82.90
2019-05-16T19:10:36.969Z,81.90
2019-05-16T19:13:08.125Z,82.50
2019-05-16T19:15:37.513Z,81.80
2019-05-16T19:18:06.851Z,82.40
2019-05-16T19:20:37.508Z,82.40
2019-05-16T19:23:07.538Z,82.70
2019-05-16T19:25:36.424Z,82.10
2019-05-16T19:28:06.898Z,81.60
2019-05-16T19:30:37.368Z,81.80
2019-05-16T19:33:07.023Z,81.30
2019-05-16T19:35:36.006Z,81.60
2019-05-16T19:38:06.688Z,81.90
2019-05-16T19:40:37.537Z,81.20
2019-05-16T19:43:07.257Z,81.90
2019-05-16T19:45:37.249Z,82.00
2019-05-16T19:48:07.172Z,82.70
2019-05-16T19:50:37.219Z,82.60
2019-05-16T19:53:07.676Z,81.80
2019-05-16T19:55:36.814Z,81.80
2019-05-16T19:58:06.806Z,81.10
2019-05-16T20:00:37.566Z,81.90
2019-05-16T20:03:07.715Z,80.80
2019-05-16T20:05:37.452Z,81.20
2019-05-16T20:08:06.885Z,81.30
2019-05-16T20:10:36.724Z,80.50
2019-05-16T20:13:07.798Z,80.60
2019-05-16T20:15:36.619Z,82.00
2019-05-16T20:18:07.762Z,80.80
2019-05-16T20:20:37.137Z,81.20
2019-05-16T20:23:06.479Z,80.90
2019-05-16T20:25:36.637Z,80.30
2019-05-16T20:28:08.430Z,80.90
2019-05-16T20:30:37.243Z,81.40
2019-05-16T20:33:08.955Z,81.40
2019-05-16T20:35:37.468Z,82.00
2019-05-16T20:38:06.842Z,81.80
2019-05-16T20:40:37.405Z,80.90
2019-05-16T20:43:07.718Z,81.00
2019-05-16T20:45:39.554Z,81.60
2019-05-16T20:48:12.258Z,81.70
2019-05-16T20:50:37.284Z,81.20
2019-05-16T20:53:07.148Z,81.60
2019-05-16T20:55:37.648Z,82.50
2019-05-16T20:58:07.798Z,82.50
2019-05-16T21:00:37.885Z,82.70
2019-05-16T21:03:07.206Z,82.30
2019-05-16T21:05:38.349Z,83.00
2019-05-16T21:08:06.581Z,82.70
2019-05-16T21:10:35.392Z,82.70
2019-05-16T21:13:04.059Z,83.00
2019-05-16T21:15:32.769Z,83.80
2019-05-16T21:18:01.399Z,84.00
2019-05-16T21:20:30.129Z,84.70
2019-05-16T21:22:58.794Z,85.40
2019-05-16T21:25:27.519Z,84.90
2019-05-16T21:27:57.249Z,85.20
2019-05-16T21:30:27.359Z,84.80
2019-05-16T21:32:56.495Z,84.70
2019-05-16T21:35:27.082Z,84.70
2019-05-16T21:37:55.855Z,84.50
2019-05-16T21:40:26.495Z,84.30
2019-05-16T21:42:58.429Z,85.30
2019-05-16T21:45:26.537Z,85.90
2019-05-16T21:47:56.815Z,85.60
2019-05-16T21:50:27.494Z,85.80
2019-05-16T21:52:56.564Z,85.40
2019-05-16T21:55:29.737Z,84.80
2019-05-16T21:57:57.481Z,85.60
2019-05-16T22:00:30.853Z,86.90
2019-05-16T22:02:59.492Z,87.70
2019-05-16T22:05:31.023Z,88.20
2019-05-16T22:07:59.711Z,88.90
2019-05-16T22:10:28.405Z,90.10
2019-05-16T22:12:57.251Z,90.30
2019-05-16T22:15:26.017Z,90.80
2019-05-16T22:17:56.511Z,90.80
2019-05-16T22:20:27.061Z,90.90
2019-05-16T22:22:57.270Z,91.50
2019-05-16T22:25:27.298Z,91.80
2019-05-16T22:27:57.568Z,91.70
2019-05-16T22:30:27.248Z,91.40
2019-05-16T22:32:56.071Z,91.50
2019-05-16T22:35:24.776Z,91.50
2019-05-16T22:37:56.419Z,91.80
2019-05-16T22:40:26.679Z,91.40
2019-05-16T22:42:57.381Z,91.70
2019-05-16T22:45:27.024Z,91.90
2019-05-16T22:47:55.895Z,91.60
2019-05-16T22:50:26.898Z,91.60
2019-05-16T22:52:56.837Z,91.70
2019-05-16T22:55:26.424Z,91.60
2019-05-16T22:57:56.543Z,91.90
2019-05-16T23:00:29.675Z,92.50
2019-05-16T23:02:58.329Z,92.20
2019-05-16T23:05:27.545Z,92.20
2019-05-16T23:08:05.722Z,92.20
2019-05-16T23:10:28.011Z,92.30
2019-05-16T23:12:57.271Z,92.80
2019-05-16T23:15:26.565Z,93.40
2019-05-16T23:17:57.308Z,93.10
2019-05-16T23:20:27.810Z,93.00
2019-05-16T23:22:56.460Z,92.90
2019-05-16T23:25:25.118Z,93.00
2019-05-16T23:27:53.809Z,92.90
2019-05-16T23:30:22.467Z,92.80
2019-05-16T23:32:51.189Z,92.80
2019-05-16T23:35:19.849Z,92.60
2019-05-16T23:37:48.544Z,93.00
2019-05-16T23:40:17.194Z,93.00
2019-05-16T23:42:46.527Z,92.70
2019-05-16T23:45:17.127Z,93.00
2019-05-16T23:47:47.149Z,93.30
2019-05-16T23:50:17.104Z,93.10
2019-05-16T23:52:47.113Z,93.10
2019-05-16T23:55:17.435Z,93.30
2019-05-16T23:57:46.668Z,93.70
